Time;durP1;ratioP1;P1;durP2;ratioP2;P2;SDS_P1;SDS_P2;PMS_P1;PMS_P2;Temp;Humidity;BMP_temperature;BMP_pressure;BME280_temperature;BME280_humidity;BME280_pressure;Samples;Min_cycle;Max_cycle;Signal;HPM_P1;HPM_P2
2023/06/21 00:00:53;;;;;;;6.45;4.60;;;;;;;21.02;100.00;100215.00;8344636;28;20136;-65
2023/06/21 00:04:55;;;;;;;5.32;4.15;;;;;;;21.11;100.00;100208.22;8346321;28;20053;-65
2023/06/21 00:08:56;;;;;;;7.90;3.95;;;;;;;20.97;100.00;100212.03;8348811;28;20486;-66
2023/06/21 00:12:58;;;;;;;6.03;4.65;;;;;;;21.01;100.00;100224.28;8352800;28;20039;-63
2023/06/21 00:16:58;;;;;;;5.18;3.80;;;;;;;21.09;100.00;100229.56;8346297;28;20120;-62
2023/06/21 00:20:59;;;;;;;5.00;3.92;;;;;;;21.12;100.00;100231.88;8345562;28;20030;-62
2023/06/21 00:25:00;;;;;;;7.50;4.15;;;;;;;21.10;100.00;100237.59;8351044;28;20041;-63
2023/06/21 00:29:00;;;;;;;6.10;4.32;;;;;;;20.99;100.00;100246.50;8352516;28;20044;-62
2023/06/21 00:33:02;;;;;;;4.78;4.10;;;;;;;20.83;100.00;100257.06;8338998;28;20040;-62
2023/06/21 00:37:03;;;;;;;7.50;4.07;;;;;;;20.82;100.00;100264.47;8345135;28;20033;-63
2023/06/21 00:41:05;;;;;;;6.72;4.28;;;;;;;20.88;100.00;100271.00;8343285;28;20601;-63
2023/06/21 00:45:07;;;;;;;6.70;4.70;;;;;;;20.91;100.00;100262.34;8342724;28;20406;-63
2023/06/21 00:49:07;;;;;;;5.32;4.07;;;;;;;20.93;100.00;100266.59;8345935;28;20040;-62
2023/06/21 00:53:09;;;;;;;6.40;4.43;;;;;;;21.00;100.00;100264.69;8353079;28;20157;-63
2023/06/21 00:57:11;;;;;;;6.03;4.40;;;;;;;21.02;100.00;100278.22;8345346;28;20514;-64
2023/06/21 01:01:12;;;;;;;8.18;4.50;;;;;;;21.08;99.90;100269.13;8350539;28;20036;-63
2023/06/21 01:05:15;;;;;;;5.57;4.50;;;;;;;20.99;100.00;100286.91;8357317;28;20458;-63
2023/06/21 01:09:40;;;;;;;6.93;4.07;;;;;;;20.92;100.00;100297.03;8356809;28;20055;-62
2023/06/21 01:14:10;;;;;;;5.65;4.07;;;;;;;20.66;100.00;100302.50;8352558;28;20500;-63
2023/06/21 01:18:14;;;;;;;5.22;4.63;;;;;;;20.84;100.00;100311.81;8353618;28;20451;-63
2023/06/21 01:22:48;;;;;;;7.53;4.28;;;;;;;20.89;100.00;100302.94;8354435;28;20108;-63
2023/06/21 01:26:58;;;;;;;6.73;4.57;;;;;;;20.96;100.00;100303.81;8354663;28;20462;-64
2023/06/21 01:31:01;;;;;;;7.72;4.55;;;;;;;20.74;100.00;100310.56;8353495;28;20040;-63
2023/06/21 01:35:02;;;;;;;6.85;4.50;;;;;;;20.84;100.00;100316.47;8356358;28;20036;-63
2023/06/21 01:39:04;;;;;;;6.90;4.50;;;;;;;20.77;100.00;100321.13;8356414;28;20044;-63
2023/06/21 01:43:06;;;;;;;4.97;3.95;;;;;;;20.84;100.00;100321.97;8354154;28;20048;-63
2023/06/21 01:47:07;;;;;;;5.97;3.88;;;;;;;20.76;100.00;100313.91;8355269;28;20037;-63
2023/06/21 01:51:09;;;;;;;4.90;4.18;;;;;;;20.69;100.00;100318.56;8353625;28;20041;-63
2023/06/21 01:55:10;;;;;;;5.55;4.38;;;;;;;20.59;100.00;100312.66;8355660;28;20029;-61
2023/06/21 01:59:11;;;;;;;5.25;4.20;;;;;;;20.52;100.00;100312.63;8355017;28;20036;-61
2023/06/21 02:03:14;;;;;;;5.97;4.07;;;;;;;20.45;100.00;100313.69;8358868;28;20040;-61
2023/06/21 02:07:15;;;;;;;10.73;4.60;;;;;;;20.51;100.00;100310.09;8339981;28;20079;-61
2023/06/21 02:11:17;;;;;;;6.45;4.40;;;;;;;20.13;100.00;100330.94;8354053;28;20037;-60
2023/06/21 02:15:19;;;;;;;6.15;4.65;;;;;;;20.01;100.00;100321.59;8353425;28;20511;-61
2023/06/21 02:19:20;;;;;;;9.90;4.75;;;;;;;20.15;100.00;100331.56;8356842;28;20033;-61
2023/06/21 02:23:21;;;;;;;7.45;4.97;;;;;;;20.12;100.00;100338.31;8353320;28;20414;-61
2023/06/21 02:27:23;;;;;;;9.95;5.25;;;;;;;20.19;100.00;100332.88;8352697;28;20094;-61
2023/06/21 02:31:24;;;;;;;6.65;4.72;;;;;;;20.14;100.00;100341.72;8356323;28;20405;-61
2023/06/21 02:35:25;;;;;;;8.05;5.22;;;;;;;20.06;100.00;100333.63;8349652;28;20049;-61
2023/06/21 02:39:25;;;;;;;7.95;5.47;;;;;;;19.98;100.00;100339.31;8356201;28;20041;-62
2023/06/21 02:43:27;;;;;;;6.13;5.50;;;;;;;19.91;100.00;100346.66;8355813;28;20053;-61
2023/06/21 02:47:29;;;;;;;6.88;5.10;;;;;;;19.74;100.00;100360.94;8355988;28;20033;-61
2023/06/21 02:51:30;;;;;;;8.00;5.82;;;;;;;19.60;100.00;100350.97;8352902;28;20060;-64
2023/06/21 02:55:30;;;;;;;6.07;5.43;;;;;;;19.60;100.00;100359.19;8359443;28;20040;-63
2023/06/21 02:59:31;;;;;;;6.53;5.60;;;;;;;19.58;100.00;100362.13;8358252;28;20061;-63
2023/06/21 03:03:32;;;;;;;6.80;5.03;;;;;;;19.60;100.00;100365.50;8358118;28;20033;-63
2023/06/21 03:07:33;;;;;;;7.13;5.25;;;;;;;19.69;100.00;100357.94;8359717;28;20048;-63
2023/06/21 03:11:33;;;;;;;6.40;4.82;;;;;;;19.84;100.00;100373.22;8363261;28;20127;-63
2023/06/21 03:15:34;;;;;;;7.47;4.60;;;;;;;19.83;100.00;100376.19;8360295;28;20048;-63
2023/06/21 03:19:35;;;;;;;10.40;5.40;;;;;;;19.97;100.00;100383.44;8360635;28;20092;-63
2023/06/21 03:23:35;;;;;;;9.35;5.28;;;;;;;19.84;100.00;100377.84;8357674;28;20064;-63
2023/06/21 03:27:37;;;;;;;9.27;5.28;;;;;;;19.86;100.00;100386.75;8359897;28;20621;-64
2023/06/21 03:31:38;;;;;;;8.45;5.65;;;;;;;19.91;100.00;100384.25;8361259;28;20041;-63
2023/06/21 03:35:39;;;;;;;14.55;5.20;;;;;;;19.74;100.00;100399.34;8359347;28;20566;-63
2023/06/21 03:39:39;;;;;;;6.80;5.22;;;;;;;19.54;100.00;100409.34;8359562;28;20045;-63
2023/06/21 03:43:40;;;;;;;9.27;5.10;;;;;;;19.63;100.00;100399.91;8340855;28;20412;-63
2023/06/21 03:47:44;;;;;;;10.65;6.10;;;;;;;19.64;100.00;100407.91;8346426;28;20055;-63
2023/06/21 03:51:45;;;;;;;10.90;5.78;;;;;;;19.68;100.00;100402.88;8352188;28;20048;-63
2023/06/21 03:55:46;;;;;;;12.23;5.75;;;;;;;19.59;100.00;100418.66;8357483;28;20048;-63
2023/06/21 03:59:47;;;;;;;11.68;5.28;;;;;;;19.54;100.00;100423.91;8354621;28;20033;-63
2023/06/21 04:03:47;;;;;;;13.50;6.60;;;;;;;19.73;100.00;100425.09;8351692;28;20046;-64
2023/06/21 04:07:48;;;;;;;17.63;6.25;;;;;;;19.74;100.00;100433.13;8347841;28;20050;-63
2023/06/21 04:11:48;;;;;;;15.20;6.25;;;;;;;19.80;100.00;100431.44;8357867;28;20099;-63
2023/06/21 04:15:48;;;;;;;10.13;6.32;;;;;;;19.92;100.00;100436.19;8351941;28;20044;-63
2023/06/21 04:19:49;;;;;;;14.30;6.85;;;;;;;20.03;100.00;100443.00;8355551;28;20065;-62
2023/06/21 04:23:50;;;;;;;13.43;6.95;;;;;;;20.24;100.00;100440.16;8354699;28;20151;-61
2023/06/21 04:27:50;;;;;;;14.05;7.03;;;;;;;20.24;100.00;100429.16;8349851;28;20051;-61
2023/06/21 04:31:53;;;;;;;14.38;6.75;;;;;;;20.30;100.00;100440.19;8360135;28;20043;-62
2023/06/21 04:35:53;;;;;;;15.00;6.72;;;;;;;20.47;100.00;100444.28;8350515;28;20052;-64
2023/06/21 04:39:53;;;;;;;15.25;7.03;;;;;;;20.57;100.00;100455.72;8350952;28;20161;-66
2023/06/21 04:43:54;;;;;;;16.50;7.53;;;;;;;20.73;100.00;100458.09;8370063;28;20456;-63
2023/06/21 04:47:57;;;;;;;18.27;7.10;;;;;;;20.91;100.00;100461.09;8359882;28;20303;-62
2023/06/21 04:51:58;;;;;;;14.93;6.93;;;;;;;21.08;99.63;100467.91;8347033;28;20425;-63
2023/06/21 04:55:58;;;;;;;13.10;7.18;;;;;;;21.40;97.71;100471.75;8350206;28;20063;-63
2023/06/21 05:00:02;;;;;;;11.35;7.00;;;;;;;21.68;96.36;100466.84;8352288;28;20540;-63
2023/06/21 05:04:03;;;;;;;9.25;6.75;;;;;;;21.91;95.14;100475.53;8353109;28;20086;-61
2023/06/21 05:08:04;;;;;;;16.55;6.38;;;;;;;22.20;93.99;100482.47;8351115;28;20033;-61
2023/06/21 05:12:08;;;;;;;14.23;7.70;;;;;;;22.13;95.05;100485.22;8346561;28;20176;-63
2023/06/21 05:16:08;;;;;;;14.77;7.93;;;;;;;21.79;96.92;100481.91;8353896;28;20041;-63
2023/06/21 05:20:09;;;;;;;15.18;7.10;;;;;;;21.87;97.65;100489.94;8355184;28;20077;-61
2023/06/21 05:24:10;;;;;;;13.10;7.97;;;;;;;22.07;97.16;100488.84;8351667;28;20045;-61
2023/06/21 05:28:10;;;;;;;15.68;7.53;;;;;;;22.53;94.36;100489.56;8351158;28;20047;-63
2023/06/21 05:32:11;;;;;;;12.30;6.85;;;;;;;22.98;91.72;100496.78;8355830;28;20182;-63
2023/06/21 05:36:11;;;;;;;12.25;6.97;;;;;;;23.32;90.66;100491.91;8357619;28;20453;-62
2023/06/21 05:40:12;;;;;;;8.82;6.75;;;;;;;23.43;90.34;100499.47;8363386;28;20326;-62
2023/06/21 05:44:13;;;;;;;14.55;6.85;;;;;;;23.72;89.60;100515.38;8352711;28;20037;-63
2023/06/21 05:48:13;;;;;;;17.38;7.72;;;;;;;23.78;91.25;100520.00;8352135;28;20063;-64
2023/06/21 05:52:15;;;;;;;10.07;6.85;;;;;;;24.21;87.43;100515.34;8352604;28;20207;-63
2023/06/21 05:56:16;;;;;;;9.35;7.03;;;;;;;24.63;84.47;100517.16;8349387;28;20407;-64
2023/06/21 06:00:18;;;;;;;7.43;6.35;;;;;;;24.91;83.52;100523.00;8354256;28;20064;-64
2023/06/21 06:04:18;;;;;;;9.50;7.18;;;;;;;24.84;83.56;100525.00;8354588;28;20041;-64
2023/06/21 06:08:18;;;;;;;9.60;6.22;;;;;;;24.98;82.72;100523.78;8352245;28;20556;-64
2023/06/21 06:12:21;;;;;;;17.77;8.32;;;;;;;24.91;82.61;100517.47;8353309;28;20495;-64
2023/06/21 06:16:22;;;;;;;14.40;7.60;;;;;;;25.03;82.02;100521.13;8354200;28;20044;-64
2023/06/21 06:20:22;;;;;;;15.80;7.85;;;;;;;25.57;80.11;100534.81;8354264;28;20036;-63
2023/06/21 06:24:23;;;;;;;14.80;6.72;;;;;;;25.92;77.56;100549.56;8347760;28;20060;-64
2023/06/21 06:28:23;;;;;;;9.57;5.57;;;;;;;26.04;78.14;100544.91;8346168;28;20040;-63
2023/06/21 06:32:26;;;;;;;10.90;6.13;;;;;;;26.26;76.41;100559.84;8385549;28;20092;-63
2023/06/21 06:36:27;;;;;;;7.82;5.93;;;;;;;26.28;76.23;100559.59;8353240;28;20036;-62
2023/06/21 06:40:27;;;;;;;9.40;6.18;;;;;;;26.41;76.17;100551.06;8353090;28;20034;-62
2023/06/21 06:44:28;;;;;;;10.82;6.35;;;;;;;26.39;76.46;100556.84;8353768;28;20041;-62
2023/06/21 06:48:28;;;;;;;7.95;6.07;;;;;;;26.52;76.62;100566.84;8348905;28;20566;-62
2023/06/21 06:52:29;;;;;;;12.38;6.85;;;;;;;26.94;76.09;100565.59;8348355;28;20032;-62
2023/06/21 06:56:29;;;;;;;9.40;6.30;;;;;;;27.20;75.07;100569.72;8335021;28;20037;-62
2023/06/21 07:00:30;;;;;;;9.93;6.88;;;;;;;27.15;74.48;100566.84;8336340;28;20283;-62
2023/06/21 07:04:30;;;;;;;14.85;8.65;;;;;;;27.28;73.49;100563.78;8334106;28;20542;-62
2023/06/21 07:08:31;;;;;;;8.20;6.82;;;;;;;27.46;73.99;100569.13;8335880;28;20048;-64
2023/06/21 07:12:31;;;;;;;7.50;6.53;;;;;;;27.59;73.85;100574.38;8330258;28;20458;-66
2023/06/21 07:16:35;;;;;;;9.98;6.55;;;;;;;27.82;73.87;100571.47;8332975;28;20624;-64
2023/06/21 07:20:36;;;;;;;;;;;;;;;28.03;72.05;100565.19;8333627;28;20036;-64
2023/06/21 07:24:36;;;;;;;8.15;6.25;;;;;;;28.08;70.11;100573.59;8330003;28;20024;-64
2023/06/21 07:28:37;;;;;;;8.15;6.40;;;;;;;28.26;70.74;100576.13;8336586;28;20030;-64
2023/06/21 07:32:37;;;;;;;8.65;6.28;;;;;;;28.79;68.32;100593.09;8335967;28;20075;-64
2023/06/21 07:36:39;;;;;;;7.15;5.88;;;;;;;28.00;71.09;100582.38;8334486;28;20041;-64
2023/06/21 07:40:39;;;;;;;7.65;5.65;;;;;;;27.73;72.90;100586.88;8341119;28;20033;-64
2023/06/21 07:44:39;;;;;;;10.70;7.72;;;;;;;27.53;72.87;100581.78;8340070;28;20099;-64
2023/06/21 07:48:40;;;;;;;11.02;7.78;;;;;;;27.36;73.57;100585.63;8342129;28;20504;-65
2023/06/21 07:52:40;;;;;;;11.52;6.82;;;;;;;27.36;73.76;100585.63;8338834;28;20476;-64
2023/06/21 07:56:41;;;;;;;13.93;7.30;;;;;;;26.95;74.50;100589.47;8348176;28;20063;-64
2023/06/21 08:00:41;;;;;;;14.38;7.63;;;;;;;26.71;75.39;100588.66;8356347;28;20041;-64
2023/06/21 08:04:42;;;;;;;12.70;7.30;;;;;;;27.02;74.84;100592.97;8358115;28;20064;-64
2023/06/21 08:08:43;;;;;;;11.30;7.13;;;;;;;27.71;72.58;100601.00;8357083;28;20044;-64
2023/06/21 08:12:43;;;;;;;11.73;6.70;;;;;;;27.90;72.12;100604.47;8356827;28;20040;-64
2023/06/21 08:16:44;;;;;;;9.55;6.35;;;;;;;28.11;71.21;100598.13;8358566;28;20528;-64
2023/06/21 08:20:44;;;;;;;13.95;6.70;;;;;;;28.72;69.81;100592.41;8355222;28;20534;-65
2023/06/21 08:24:45;;;;;;;14.90;7.38;;;;;;;28.43;69.92;100593.66;8354081;28;20076;-64
2023/06/21 08:28:46;;;;;;;14.13;6.82;;;;;;;28.36;68.82;100593.00;8356658;28;20137;-64
2023/06/21 08:32:46;;;;;;;14.60;6.90;;;;;;;28.13;70.65;100584.81;8358175;28;20427;-67
2023/06/21 08:36:46;;;;;;;11.85;6.85;;;;;;;28.87;69.82;100581.50;8356099;28;20769;-67
2023/06/21 08:40:47;;;;;;;11.30;5.55;;;;;;;29.26;68.53;100577.56;8355059;28;20413;-67
2023/06/21 08:44:47;;;;;;;12.45;6.40;;;;;;;29.74;63.61;100571.13;8355383;28;20048;-67
2023/06/21 08:48:51;;;;;;;10.48;5.15;;;;;;;29.87;64.22;100582.69;8353146;28;20471;-61
2023/06/21 08:52:52;;;;;;;;;;;;;;;29.25;66.78;100589.81;8349306;28;20403;-61
2023/06/21 08:57:01;;;;;;;14.13;5.35;;;;;;;29.62;65.47;100588.03;8350085;28;19940;-61
2023/06/21 09:01:03;;;;;;;15.40;6.35;;;;;;;28.98;66.06;100590.81;8349280;28;20044;-61
2023/06/21 09:05:08;;;;;;;14.15;6.63;;;;;;;28.16;68.31;100593.50;8354910;28;20257;-61
2023/06/21 09:09:13;;;;;;;8.40;5.65;;;;;;;28.44;70.39;100598.09;8350892;28;20048;-61
2023/06/21 09:13:14;;;;;;;9.93;6.50;;;;;;;29.36;67.91;100591.59;8352115;28;20044;-61
2023/06/21 09:17:15;;;;;;;12.60;6.25;;;;;;;29.95;64.50;100587.78;8352296;28;20396;-61
2023/06/21 09:21:17;;;;;;;14.35;6.25;;;;;;;29.26;65.21;100588.72;8349923;28;20036;-61
2023/06/21 09:25:19;;;;;;;7.68;5.78;;;;;;;29.38;66.05;100586.63;8341517;28;20044;-62
2023/06/21 09:29:19;;;;;;;13.65;5.72;;;;;;;29.46;65.73;100583.34;8353660;28;20040;-63
2023/06/21 09:33:20;;;;;;;11.45;5.72;;;;;;;29.57;65.86;100578.72;8347439;28;20510;-61
2023/06/21 09:37:37;;;;;;;11.63;5.80;;;;;;;29.00;68.00;100606.16;8377547;28;20045;-61
2023/06/21 09:41:39;;;;;;;9.13;7.78;;;;;;;28.12;71.65;100613.72;8347210;28;20056;-61
2023/06/21 09:45:39;;;;;;;12.88;7.30;;;;;;;28.05;72.43;100616.66;8348353;28;20454;-61
2023/06/21 09:49:46;;;;;;;11.68;7.88;;;;;;;28.39;69.27;100611.94;8349184;28;20086;-59
2023/06/21 09:53:47;;;;;;;10.20;6.38;;;;;;;28.46;71.40;100621.84;8350884;28;20056;-60
2023/06/21 09:57:52;;;;;;;8.50;6.30;;;;;;;28.30;68.54;100616.25;8350086;28;20474;-61
2023/06/21 10:01:53;;;;;;;10.65;7.53;;;;;;;28.74;70.17;100626.41;8348930;28;20041;-62
2023/06/21 10:05:57;;;;;;;10.50;8.30;;;;;;;28.12;71.96;100630.41;8351142;28;20036;-62
2023/06/21 10:10:05;;;;;;;9.05;7.82;;;;;;;27.62;74.06;100623.88;8346269;28;20036;-61
2023/06/21 10:14:05;;;;;;;12.20;8.77;;;;;;;28.12;72.11;100641.53;8346739;28;20033;-62
2023/06/21 10:18:09;;;;;;;11.20;7.28;;;;;;;29.77;67.57;100630.00;8352313;28;20460;-62
2023/06/21 10:22:14;;;;;;;;;;;;;;;30.78;62.96;100630.88;8349214;28;20667;-61
2023/06/21 10:26:19;;;;;;;13.73;6.53;;;;;;;30.37;63.20;100638.94;8347115;28;20402;-62
2023/06/21 10:30:23;;;;;;;9.52;6.93;;;;;;;28.98;67.79;100647.38;8350760;28;20037;-62
2023/06/21 10:34:27;;;;;;;16.77;7.30;;;;;;;28.25;69.13;100652.31;8367651;28;20044;-62
2023/06/21 10:38:50;;;;;;;11.95;7.20;;;;;;;27.99;70.89;100653.81;8369981;28;20032;-61
2023/06/21 10:42:51;;;;;;;14.73;7.82;;;;;;;29.71;66.27;100653.38;8362672;28;20068;-62
2023/06/21 10:46:52;;;;;;;8.38;6.05;;;;;;;32.62;56.78;100654.94;8368044;28;20116;-62
2023/06/21 10:50:54;;;;;;;8.68;5.70;;;;;;;32.29;56.32;100661.06;8350834;28;20041;-62
2023/06/21 10:54:58;;;;;;;9.43;6.45;;;;;;;31.17;59.08;100662.97;8344533;28;20179;-63
2023/06/21 10:58:58;;;;;;;11.80;6.93;;;;;;;32.38;56.97;100665.00;8347170;28;20519;-62
2023/06/21 11:02:59;;;;;;;11.75;7.22;;;;;;;33.62;54.81;100668.69;8351776;28;20438;-62
2023/06/21 11:07:00;;;;;;;9.95;5.82;;;;;;;34.91;51.76;100672.84;8349501;28;20044;-62
2023/06/21 11:11:00;;;;;;;9.60;5.70;;;;;;;33.26;53.07;100675.53;8349961;28;20052;-62
2023/06/21 11:15:04;;;;;;;12.43;6.07;;;;;;;31.68;55.78;100664.88;8357934;28;20538;-62
2023/06/21 11:19:13;;;;;;;10.15;6.93;;;;;;;30.08;59.84;100675.75;8355637;28;20040;-62
2023/06/21 11:23:16;;;;;;;8.20;7.40;;;;;;;30.25;59.99;100671.78;8357383;28;20044;-62
2023/06/21 11:27:17;;;;;;;;;;;;;;;30.26;60.40;100679.06;8376175;28;20049;-61
2023/06/21 11:31:23;;;;;;;8.77;6.57;;;;;;;30.72;59.77;100671.03;8357729;28;19923;-62
2023/06/21 11:35:37;;;;;;;10.05;6.72;;;;;;;32.18;56.15;100676.19;8349305;28;20446;-63
2023/06/21 11:39:39;;;;;;;12.98;6.93;;;;;;;30.65;59.41;100681.59;8354578;28;20049;-62
2023/06/21 11:43:41;;;;;;;8.23;6.85;;;;;;;30.37;59.63;100686.38;8356011;28;20043;-62
2023/06/21 11:47:58;;;;;;;12.60;7.20;;;;;;;29.92;60.49;100677.53;8348405;28;20037;-62
2023/06/21 11:52:04;;;;;;;9.07;6.15;;;;;;;31.69;56.62;100678.59;8341468;28;20037;-62
2023/06/21 11:56:05;;;;;;;12.18;5.80;;;;;;;33.17;53.66;100685.66;8349649;28;20326;-62
2023/06/21 12:00:07;;;;;;;8.93;5.68;;;;;;;34.02;51.21;100680.84;8352801;28;20053;-61
2023/06/21 12:04:25;;;;;;;7.68;5.60;;;;;;;33.08;52.86;100676.16;8327836;27;20396;-61
2023/06/21 12:08:28;;;;;;;8.43;5.78;;;;;;;32.06;54.30;100678.41;8329127;28;20114;-64
2023/06/21 12:12:29;;;;;;;9.13;5.63;;;;;;;31.72;54.02;100677.19;8327918;28;20492;-64
2023/06/21 12:16:30;;;;;;;9.73;5.43;;;;;;;31.50;55.21;100684.94;8328618;28;20467;-64
2023/06/21 12:20:31;;;;;;;6.10;5.32;;;;;;;31.31;55.37;100683.72;8328681;28;20034;-64
2023/06/21 12:24:33;;;;;;;9.18;5.55;;;;;;;30.63;56.93;100683.78;8322880;28;20064;-64
2023/06/21 12:28:35;;;;;;;9.48;5.65;;;;;;;30.20;57.38;100682.91;8329642;28;20048;-64
2023/06/21 12:32:35;;;;;;;11.82;5.13;;;;;;;30.67;57.93;100685.78;8327856;28;20347;-64
2023/06/21 12:36:37;;;;;;;4.88;4.47;;;;;;;30.52;56.88;100682.06;8328134;28;20116;-65
2023/06/21 12:40:51;;;;;;;7.95;4.63;;;;;;;30.43;59.27;100685.31;8327057;28;20033;-65
2023/06/21 12:44:56;;;;;;;7.70;4.75;;;;;;;30.68;56.88;100686.63;8322591;28;20033;-65
2023/06/21 12:48:58;;;;;;;9.00;4.35;;;;;;;30.96;56.58;100691.88;8301594;28;20088;-64
2023/06/21 12:52:59;;;;;;;7.28;4.53;;;;;;;30.87;57.99;100694.34;8329938;28;20575;-65
2023/06/21 12:57:00;;;;;;;10.95;4.50;;;;;;;30.75;57.19;100704.03;8327037;28;20064;-65
2023/06/21 13:01:01;;;;;;;10.75;4.45;;;;;;;30.43;57.88;100695.63;8326297;28;20045;-65
2023/06/21 13:05:02;;;;;;;7.35;4.60;;;;;;;30.42;57.82;100714.34;8328778;28;20033;-65
2023/06/21 13:09:03;;;;;;;6.47;4.20;;;;;;;30.13;56.81;100710.13;8328690;28;20527;-66
2023/06/21 13:13:04;;;;;;;6.10;5.00;;;;;;;29.97;58.55;100702.72;8318561;28;20049;-65
2023/06/21 13:17:04;;;;;;;6.13;4.50;;;;;;;29.79;59.63;100700.28;8305990;28;20512;-66
2023/06/21 13:21:05;;;;;;;5.90;4.65;;;;;;;30.37;59.69;100702.28;8303608;28;20037;-66
2023/06/21 13:25:05;;;;;;;7.60;4.95;;;;;;;30.83;58.04;100695.16;8318896;28;20404;-65
2023/06/21 13:29:06;;;;;;;6.78;4.50;;;;;;;30.66;57.10;100705.59;8303775;28;20172;-63
2023/06/21 13:33:06;;;;;;;5.32;4.38;;;;;;;30.55;56.56;100715.03;8305244;28;20045;-63
2023/06/21 13:37:07;;;;;;;12.73;4.63;;;;;;;31.01;57.81;100714.28;8305780;28;20175;-63
2023/06/21 13:41:07;;;;;;;7.35;4.65;;;;;;;30.61;57.48;100720.34;8303528;28;20574;-63
2023/06/21 13:45:08;;;;;;;6.55;4.20;;;;;;;30.25;57.86;100701.63;8302893;28;20129;-63
2023/06/21 13:49:08;;;;;;;7.65;4.65;;;;;;;29.98;59.05;100698.81;8304693;28;20038;-63
2023/06/21 13:53:10;;;;;;;6.70;4.37;;;;;;;29.91;59.79;100703.75;8302453;28;20042;-63
2023/06/21 13:57:14;;;;;;;8.75;4.22;;;;;;;30.40;59.60;100701.75;8318083;28;20620;-63
2023/06/21 14:01:15;;;;;;;;;;;;;;;30.22;58.32;100705.78;8303834;28;20346;-62
2023/06/21 14:05:17;;;;;;;5.03;4.10;;;;;;;30.00;58.68;100710.56;8304822;28;19928;-60
2023/06/21 14:09:18;;;;;;;10.77;4.43;;;;;;;29.65;59.44;100715.75;8303216;28;20049;-60
2023/06/21 14:13:19;;;;;;;4.50;3.72;;;;;;;29.70;59.83;100724.16;8300251;28;20111;-60
2023/06/21 14:17:20;;;;;;;6.38;3.67;;;;;;;29.90;59.89;100717.97;8302248;28;20041;-62
2023/06/21 14:21:20;;;;;;;3.95;3.40;;;;;;;29.85;59.08;100720.72;8299379;28;20415;-62
2023/06/21 14:25:21;;;;;;;4.57;3.80;;;;;;;29.76;58.06;100725.88;8299511;28;20177;-62
2023/06/21 14:29:21;;;;;;;5.13;3.30;;;;;;;29.55;58.73;100723.91;8303489;28;20060;-62
2023/06/21 14:33:22;;;;;;;3.88;3.47;;;;;;;29.41;59.21;100713.44;8304071;28;20037;-62
2023/06/21 14:37:24;;;;;;;4.90;3.30;;;;;;;29.26;59.85;100711.28;8302813;28;20131;-62
2023/06/21 14:41:25;;;;;;;5.68;3.33;;;;;;;29.72;58.68;100704.38;8304611;28;20071;-62
2023/06/21 14:45:25;;;;;;;7.57;3.65;;;;;;;29.82;57.47;100710.91;8302385;28;20042;-62
2023/06/21 14:49:26;;;;;;;8.50;3.17;;;;;;;29.78;59.41;100709.75;8299553;28;20567;-62
2023/06/21 14:53:26;;;;;;;8.48;3.30;;;;;;;29.92;57.90;100713.81;8283823;28;20041;-62
2023/06/21 14:57:26;;;;;;;4.73;4.23;;;;;;;29.56;58.87;100711.69;8303868;28;20041;-60
2023/06/21 15:01:27;;;;;;;10.82;3.53;;;;;;;29.77;57.54;100708.06;8293747;28;20295;-64
2023/06/21 15:05:28;;;;;;;7.68;3.38;;;;;;;30.03;59.39;100701.66;8279304;28;20075;-63
2023/06/21 15:09:28;;;;;;;6.95;3.75;;;;;;;29.90;57.11;100707.66;8296685;28;20116;-64
2023/06/21 15:13:28;;;;;;;9.83;4.13;;;;;;;30.37;57.73;100702.28;8300435;28;20049;-63
2023/06/21 15:17:29;;;;;;;6.32;3.50;;;;;;;30.23;56.36;100701.91;8302206;28;20287;-64
2023/06/21 15:21:29;;;;;;;6.73;3.43;;;;;;;30.03;55.96;100706.38;8295615;28;20061;-64
2023/06/21 15:25:30;;;;;;;7.63;3.33;;;;;;;30.01;56.32;100708.63;8299013;28;20330;-64
2023/06/21 15:29:30;;;;;;;3.35;3.03;;;;;;;29.81;56.86;100709.22;8294330;28;20042;-64
2023/06/21 15:33:31;;;;;;;17.70;3.85;;;;;;;29.80;56.53;100696.41;8296992;28;20149;-64
2023/06/21 15:37:31;;;;;;;3.95;3.42;;;;;;;29.91;56.89;100712.13;8295239;28;20038;-63
2023/06/21 15:41:32;;;;;;;6.93;3.83;;;;;;;30.01;56.41;100715.00;8301529;28;20033;-65
2023/06/21 15:45:33;;;;;;;3.20;2.90;;;;;;;29.72;56.52;100699.66;8300048;28;20087;-64
2023/06/21 15:49:33;;;;;;;4.95;3.22;;;;;;;30.02;56.39;100711.16;8298865;28;20050;-64
2023/06/21 15:53:34;;;;;;;5.13;3.08;;;;;;;29.86;55.99;100717.66;8297062;28;20062;-66
2023/06/21 15:57:34;;;;;;;6.30;3.78;;;;;;;29.70;56.66;100724.16;8297074;28;20049;-65
2023/06/21 16:01:35;;;;;;;4.32;3.60;;;;;;;29.71;56.53;100714.69;8297984;28;20045;-66
2023/06/21 16:05:35;;;;;;;4.50;3.15;;;;;;;29.84;56.47;100724.59;8299180;28;20042;-67
2023/06/21 16:09:35;;;;;;;4.13;3.38;;;;;;;29.92;55.79;100713.81;8297318;28;20065;-65
2023/06/21 16:13:38;;;;;;;3.40;2.75;;;;;;;29.77;55.93;100708.06;8302138;28;20053;-65
2023/06/21 16:17:39;;;;;;;5.15;3.17;;;;;;;29.63;56.45;100701.22;8299214;28;20034;-65
2023/06/21 16:21:40;;;;;;;5.00;3.40;;;;;;;29.66;56.63;100711.00;8297766;28;20049;-60
2023/06/21 16:25:41;;;;;;;3.65;3.15;;;;;;;29.64;56.80;100702.88;8304338;28;20526;-65
2023/06/21 16:29:43;;;;;;;3.85;3.45;;;;;;;29.43;56.08;100700.91;8297255;28;20037;-65
2023/06/21 16:33:44;;;;;;;3.47;2.70;;;;;;;29.46;57.49;100711.53;8298644;28;20077;-66
2023/06/21 16:37:44;;;;;;;4.03;2.75;;;;;;;29.46;56.88;100700.41;8299867;28;20029;-67
2023/06/21 16:41:45;;;;;;;5.25;3.00;;;;;;;29.42;57.43;100710.38;8298478;28;20048;-66
2023/06/21 16:45:45;;;;;;;5.55;3.45;;;;;;;29.21;57.56;100702.84;8297422;28;20049;-61
2023/06/21 16:49:46;;;;;;;4.03;3.00;;;;;;;29.20;57.98;100692.81;8304895;28;20094;-61
2023/06/21 16:53:46;;;;;;;3.58;2.72;;;;;;;29.22;58.78;100692.56;8300449;28;20440;-61
2023/06/21 16:57:47;;;;;;;4.05;2.97;;;;;;;29.31;57.30;100694.66;8306009;28;20060;-61
2023/06/21 17:01:47;;;;;;;3.92;2.85;;;;;;;29.09;57.45;100681.81;8306812;28;20046;-61
2023/06/21 17:05:48;;;;;;;8.30;3.28;;;;;;;29.08;57.18;100694.88;8304857;28;20042;-61
2023/06/21 17:09:48;;;;;;;3.35;2.85;;;;;;;29.03;57.74;100691.97;8301729;28;20041;-60
2023/06/21 17:13:52;;;;;;;4.75;3.00;;;;;;;29.06;57.03;100705.41;8304749;28;20034;-61
2023/06/21 17:17:53;;;;;;;4.88;3.22;;;;;;;29.03;57.90;100711.47;8303516;28;20055;-61
2023/06/21 17:21:53;;;;;;;5.75;3.30;;;;;;;28.89;58.34;100707.38;8302364;28;20504;-61
2023/06/21 17:25:54;;;;;;;4.05;3.00;;;;;;;28.78;58.18;100708.31;8301142;28;20440;-62
2023/06/21 17:29:54;;;;;;;3.13;2.80;;;;;;;28.73;58.33;100713.81;8301847;28;20487;-62
2023/06/21 17:33:54;;;;;;;5.28;3.10;;;;;;;28.71;58.76;100710.44;8301103;28;20522;-61
2023/06/21 17:37:55;;;;;;;4.43;3.35;;;;;;;28.64;58.75;100707.00;8302399;28;20048;-62
2023/06/21 17:41:56;;;;;;;5.82;2.95;;;;;;;28.76;58.63;100707.75;8327797;28;20045;-63
2023/06/21 17:45:56;;;;;;;8.70;3.25;;;;;;;28.65;58.67;100714.22;8307216;28;20084;-62
2023/06/21 17:49:57;;;;;;;3.45;3.15;;;;;;;28.66;58.58;100713.13;8302194;28;20050;-61
2023/06/21 17:53:58;;;;;;;5.25;2.60;;;;;;;28.58;59.09;100719.13;8301389;28;20061;-62
2023/06/21 17:57:58;;;;;;;5.18;3.17;;;;;;;28.58;58.85;100725.53;8302392;28;20039;-62
2023/06/21 18:01:59;;;;;;;5.10;3.20;;;;;;;28.58;59.30;100727.47;8303625;28;20033;-61
2023/06/21 18:05:59;;;;;;;3.45;2.90;;;;;;;28.65;59.14;100719.81;8303803;28;20038;-61
2023/06/21 18:10:00;;;;;;;6.63;3.05;;;;;;;28.61;59.47;100713.06;8304729;28;20051;-61
2023/06/21 18:14:00;;;;;;;7.10;3.38;;;;;;;28.48;59.90;100714.22;8301544;28;20041;-61
2023/06/21 18:18:01;;;;;;;4.18;3.38;;;;;;;28.40;60.37;100705.44;8303009;28;20069;-66
2023/06/21 18:22:01;;;;;;;4.75;3.05;;;;;;;28.30;59.87;100700.53;8300467;28;20526;-66
2023/06/21 18:26:02;;;;;;;4.55;3.35;;;;;;;28.26;59.35;100692.94;8287153;28;20504;-67
2023/06/21 18:30:03;;;;;;;5.10;3.28;;;;;;;28.20;59.60;100700.34;8303195;28;20152;-67
2023/06/21 18:34:04;;;;;;;5.65;3.00;;;;;;;28.21;60.02;100702.03;8303210;28;20559;-67
2023/06/21 18:38:04;;;;;;;4.47;3.65;;;;;;;28.15;60.09;100691.09;8302456;28;20455;-67